createdAt,value
2019-02-25T00:02:28.964Z,1.46
2019-02-25T00:05:02.249Z,1.42
2019-02-25T00:07:35.585Z,1.24
2019-02-25T00:10:09.761Z,1.16
2019-02-25T00:12:43.043Z,1.26
2019-02-25T00:15:16.404Z,1.27
2019-02-25T00:17:49.681Z,1.26
2019-02-25T00:20:22.975Z,1.19
2019-02-25T00:22:56.234Z,1.07
2019-02-25T00:25:29.518Z,0.95
2019-02-25T00:28:02.785Z,0.91
2019-02-25T00:30:36.071Z,0.89
2019-02-25T00:33:09.330Z,0.76
2019-02-25T00:35:42.614Z,0.68
2019-02-25T00:38:15.875Z,0.76
2019-02-25T00:40:49.156Z,0.89
2019-02-25T00:43:22.409Z,0.82
2019-02-25T00:45:55.686Z,0.86
2019-02-25T00:48:28.939Z,0.83
2019-02-25T00:51:02.231Z,0.79
2019-02-25T00:53:35.483Z,0.76
2019-02-25T00:56:09.036Z,0.75
2019-02-25T00:58:42.305Z,0.99
2019-02-25T01:01:15.672Z,1.41
2019-02-25T01:03:48.950Z,1.58
2019-02-25T01:06:22.292Z,1.67
2019-02-25T01:08:55.573Z,1.77
2019-02-25T01:11:28.934Z,1.92
2019-02-25T01:14:02.196Z,2.11
2019-02-25T01:16:35.489Z,2.27
2019-02-25T01:19:08.754Z,2.32
2019-02-25T01:21:42.056Z,2.27
2019-02-25T01:24:15.325Z,2.25
2019-02-25T01:26:48.592Z,2.25
2019-02-25T01:29:21.862Z,2.18
2019-02-25T01:31:55.133Z,1.94
2019-02-25T01:34:28.410Z,1.80
2019-02-25T01:37:01.693Z,1.70
2019-02-25T01:39:34.976Z,1.60
2019-02-25T01:42:08.266Z,1.45
2019-02-25T01:44:41.527Z,1.37
2019-02-25T01:47:14.813Z,1.36
2019-02-25T01:49:48.082Z,1.20
2019-02-25T01:52:21.357Z,1.15
2019-02-25T01:54:54.643Z,1.08
2019-02-25T01:57:27.925Z,0.96
2019-02-25T02:00:01.361Z,0.84
2019-02-25T02:02:34.557Z,0.81
2019-02-25T02:05:07.906Z,0.83
2019-02-25T02:07:41.177Z,0.96
2019-02-25T02:10:15.796Z,1.02
2019-02-25T02:12:49.146Z,1.11
2019-02-25T02:15:22.523Z,0.98
2019-02-25T02:17:55.809Z,0.99
2019-02-25T02:20:29.113Z,0.91
2019-02-25T02:23:02.393Z,0.98
2019-02-25T02:25:35.725Z,0.95
2019-02-25T02:28:09.003Z,0.93
2019-02-25T02:30:42.345Z,0.98
2019-02-25T02:33:15.639Z,0.94
2019-02-25T02:35:48.937Z,1.09
2019-02-25T02:38:22.241Z,1.13
2019-02-25T02:40:55.530Z,1.16
2019-02-25T02:43:28.804Z,1.15
2019-02-25T02:46:08.065Z,1.10
2019-02-25T02:48:50.386Z,1.11
2019-02-25T02:51:23.708Z,1.06
2019-02-25T02:53:56.967Z,0.92
2019-02-25T02:56:30.283Z,0.88
2019-02-25T02:59:03.761Z,0.78
2019-02-25T03:01:37.046Z,0.72
2019-02-25T03:04:10.328Z,0.81
2019-02-25T03:06:43.646Z,0.89
2019-02-25T03:09:16.914Z,0.91
2019-02-25T03:11:50.212Z,0.90
2019-02-25T03:14:23.497Z,0.85
2019-02-25T03:16:56.789Z,0.83
2019-02-25T03:19:30.067Z,0.83
2019-02-25T03:22:03.354Z,0.80
2019-02-25T03:24:36.629Z,0.73
2019-02-25T03:27:09.924Z,0.58
2019-02-25T03:29:43.200Z,0.52
2019-02-25T03:32:16.488Z,0.63
2019-02-25T03:34:49.773Z,0.60
2019-02-25T03:37:23.096Z,0.59
2019-02-25T03:39:56.364Z,0.61
2019-02-25T03:42:29.696Z,0.56
2019-02-25T03:45:03.406Z,0.52
2019-02-25T03:47:36.766Z,0.48
2019-02-25T03:50:10.216Z,0.47
2019-02-25T03:52:43.568Z,0.51
2019-02-25T03:55:21.553Z,0.36
2019-02-25T03:57:54.858Z,0.34
2019-02-25T04:00:28.200Z,0.33
2019-02-25T04:03:01.531Z,0.32
2019-02-25T04:05:34.894Z,0.29
2019-02-25T04:08:08.185Z,0.26
2019-02-25T04:10:41.464Z,0.21
2019-02-25T04:13:14.765Z,0.12
2019-02-25T04:15:48.141Z,0.01
2019-02-25T04:18:21.433Z,-0.11
2019-02-25T04:20:54.718Z,-0.17
2019-02-25T04:23:28.030Z,-0.16
2019-02-25T04:26:01.302Z,-0.25
2019-02-25T04:28:34.608Z,-0.31
2019-02-25T04:31:07.898Z,-0.28
2019-02-25T04:33:41.186Z,-0.37
2019-02-25T04:36:14.459Z,-0.41
2019-02-25T04:38:47.768Z,-0.45
2019-02-25T04:41:21.033Z,-0.51
2019-02-25T04:43:54.338Z,-0.57
2019-02-25T04:46:27.630Z,-0.48
2019-02-25T04:49:00.920Z,-0.53
2019-02-25T04:51:34.187Z,-0.59
2019-02-25T04:54:07.482Z,-0.50
2019-02-25T04:56:40.784Z,-0.48
2019-02-25T04:59:14.089Z,-0.38
2019-02-25T05:01:47.374Z,-0.32
2019-02-25T05:04:20.700Z,-0.43
2019-02-25T05:06:53.949Z,-0.31
2019-02-25T05:09:27.371Z,-0.33
2019-02-25T05:12:00.680Z,-0.38
2019-02-25T05:14:33.966Z,-0.47
2019-02-25T05:17:07.279Z,-0.57
2019-02-25T05:19:40.543Z,-0.67
2019-02-25T05:22:13.840Z,-0.69
2019-02-25T05:24:47.155Z,-0.68
2019-02-25T05:27:20.442Z,-0.74
2019-02-25T05:29:53.736Z,-0.72
2019-02-25T05:32:27.035Z,-0.69
2019-02-25T05:35:00.493Z,-0.75
2019-02-25T05:37:33.740Z,-0.68
2019-02-25T05:40:18.078Z,-0.67
2019-02-25T05:42:51.455Z,-0.67
2019-02-25T05:45:24.743Z,-0.70
2019-02-25T05:47:58.059Z,-0.65
2019-02-25T05:50:31.344Z,-0.70
2019-02-25T05:53:05.013Z,-0.78
2019-02-25T05:55:38.308Z,-0.83
2019-02-25T05:58:11.622Z,-0.89
2019-02-25T06:00:44.918Z,-0.91
2019-02-25T06:03:18.216Z,-0.87
2019-02-25T06:05:51.504Z,-0.90
2019-02-25T06:08:24.798Z,-0.95
2019-02-25T06:10:58.099Z,-0.87
2019-02-25T06:13:31.393Z,-0.77
2019-02-25T06:16:04.754Z,-0.72
2019-02-25T06:18:39.170Z,-0.72
2019-02-25T06:21:12.528Z,-0.69
2019-02-25T06:23:45.857Z,-0.64
2019-02-25T06:26:19.150Z,-0.63
2019-02-25T06:28:52.448Z,-0.65
2019-02-25T06:31:25.791Z,-0.65
2019-02-25T06:33:59.092Z,-0.67
2019-02-25T06:36:32.370Z,-0.73
2019-02-25T06:39:06.661Z,-0.86
2019-02-25T06:41:39.925Z,-0.80
2019-02-25T06:44:13.270Z,-0.74
2019-02-25T06:46:46.560Z,-0.63
2019-02-25T06:49:19.885Z,-0.54
2019-02-25T06:51:53.169Z,-0.46
2019-02-25T06:54:26.495Z,-0.40
2019-02-25T06:56:59.808Z,-0.35
2019-02-25T06:59:33.156Z,-0.33
2019-02-25T07:02:06.527Z,-0.31
2019-02-25T07:04:50.782Z,-0.26
2019-02-25T07:07:25.688Z,-0.24
2019-02-25T07:10:03.523Z,-0.02
2019-02-25T07:12:41.120Z,0.02
2019-02-25T07:15:16.051Z,0.23
2019-02-25T07:17:56.762Z,0.63
2019-02-25T07:20:31.759Z,0.77
2019-02-25T07:23:06.749Z,0.85
2019-02-25T07:25:41.690Z,0.97
2019-02-25T07:28:22.411Z,1.18
2019-02-25T07:31:05.884Z,1.71
2019-02-25T07:33:43.610Z,1.79
2019-02-25T07:36:24.555Z,1.75
2019-02-25T07:39:14.581Z,2.97
2019-02-25T07:42:05.397Z,3.48
2019-02-25T07:44:42.823Z,2.53
2019-02-25T07:47:26.743Z,1.83
2019-02-25T07:50:01.679Z,1.95
2019-02-25T07:52:51.845Z,2.07
2019-02-25T07:55:26.776Z,2.14
2019-02-25T07:58:04.670Z,2.36
2019-02-25T08:00:39.625Z,2.33
2019-02-25T08:03:17.203Z,2.53
2019-02-25T08:06:08.294Z,2.70
2019-02-25T08:08:59.282Z,2.91
2019-02-25T08:11:40.189Z,3.02
2019-02-25T08:14:17.765Z,3.04
2019-02-25T08:16:55.507Z,3.33
2019-02-25T08:19:46.994Z,3.11
2019-02-25T08:22:25.051Z,3.35
2019-02-25T08:25:05.863Z,3.50
2019-02-25T08:27:40.824Z,3.41
2019-02-25T08:30:30.887Z,3.58
2019-02-25T08:33:14.915Z,3.33
2019-02-25T08:35:53.031Z,3.65
2019-02-25T08:38:44.403Z,3.93
2019-02-25T08:41:34.663Z,4.02
2019-02-25T08:44:21.592Z,4.09
2019-02-25T08:46:56.526Z,4.36
2019-02-25T08:49:31.546Z,4.51
2019-02-25T08:52:04.896Z,4.65
2019-02-25T08:54:38.209Z,4.72
2019-02-25T08:57:11.573Z,4.78
2019-02-25T08:59:44.883Z,4.46
2019-02-25T09:02:18.177Z,4.67
2019-02-25T09:04:51.464Z,5.13
2019-02-25T09:07:24.749Z,5.08
2019-02-25T09:09:58.044Z,5.26
2019-02-25T09:12:31.333Z,5.52
2019-02-25T09:15:07.452Z,5.63
2019-02-25T09:17:42.518Z,5.71
2019-02-25T09:20:16.289Z,5.66
2019-02-25T09:22:49.559Z,5.81
2019-02-25T09:25:22.859Z,5.81
2019-02-25T09:27:56.149Z,6.00
2019-02-25T09:30:29.456Z,6.06
2019-02-25T09:33:02.724Z,6.23
2019-02-25T09:35:36.044Z,6.31
2019-02-25T09:38:09.348Z,6.36
2019-02-25T09:40:42.648Z,6.59
2019-02-25T09:43:15.946Z,6.60
2019-02-25T09:45:49.345Z,6.80
2019-02-25T09:48:22.649Z,7.20
2019-02-25T09:50:55.945Z,6.95
2019-02-25T09:53:29.246Z,7.29
2019-02-25T09:56:02.574Z,7.16
2019-02-25T09:58:35.862Z,7.34
2019-02-25T10:01:09.404Z,7.43
2019-02-25T10:03:42.683Z,7.55
2019-02-25T10:06:16.029Z,7.81
2019-02-25T10:08:49.306Z,7.99
2019-02-25T10:11:22.623Z,8.23
2019-02-25T10:13:56.061Z,8.39
2019-02-25T10:16:29.315Z,8.42
2019-02-25T10:19:02.604Z,8.75
2019-02-25T10:21:35.887Z,8.50
2019-02-25T10:24:09.281Z,8.64
2019-02-25T10:26:42.573Z,8.70
2019-02-25T10:29:15.910Z,8.96
2019-02-25T10:31:49.178Z,9.39
2019-02-25T10:34:24.073Z,9.65
2019-02-25T10:36:57.507Z,9.60
2019-02-25T10:39:30.833Z,9.90
2019-02-25T10:42:04.124Z,9.82
2019-02-25T10:44:38.181Z,9.82
2019-02-25T10:47:13.575Z,9.80
2019-02-25T10:49:47.543Z,9.95
2019-02-25T10:52:20.859Z,10.27
2019-02-25T10:54:56.101Z,10.44
2019-02-25T10:57:31.354Z,10.43
2019-02-25T11:00:07.385Z,10.52
2019-02-25T11:02:44.462Z,10.70
2019-02-25T11:05:18.914Z,10.81
2019-02-25T11:07:52.046Z,10.93
2019-02-25T11:10:26.995Z,10.99
2019-02-25T11:13:02.071Z,11.17
2019-02-25T11:15:37.522Z,11.22
2019-02-25T11:18:11.592Z,11.49
2019-02-25T11:20:44.898Z,11.20
2019-02-25T11:23:19.446Z,11.34
2019-02-25T11:25:53.717Z,11.52
2019-02-25T11:28:28.313Z,11.59
2019-02-25T11:31:01.680Z,11.71
2019-02-25T11:33:35.277Z,11.81
2019-02-25T11:36:10.434Z,11.96
2019-02-25T11:38:43.854Z,12.21
2019-02-25T11:41:17.172Z,12.26
2019-02-25T11:43:52.967Z,12.29
2019-02-25T11:46:25.596Z,12.50
2019-02-25T11:48:59.014Z,12.67
2019-02-25T11:51:32.368Z,12.51
2019-02-25T11:54:05.739Z,13.03
2019-02-25T11:56:39.058Z,13.11
2019-02-25T11:59:12.367Z,13.15
2019-02-25T12:01:45.746Z,13.21
2019-02-25T12:04:19.052Z,13.24
2019-02-25T12:06:52.424Z,13.50
2019-02-25T12:09:25.789Z,13.71
2019-02-25T12:11:59.106Z,13.52
2019-02-25T12:14:32.406Z,13.57
2019-02-25T12:17:05.770Z,13.83
2019-02-25T12:19:39.078Z,14.02
2019-02-25T12:22:12.381Z,13.89
2019-02-25T12:24:45.679Z,13.95
2019-02-25T12:27:19.009Z,13.98
2019-02-25T12:29:52.316Z,14.11
2019-02-25T12:32:25.949Z,14.46
2019-02-25T12:34:59.242Z,14.28
2019-02-25T12:37:32.537Z,14.27
2019-02-25T12:40:09.000Z,14.23
2019-02-25T12:42:42.308Z,14.27
2019-02-25T12:45:16.048Z,14.29
2019-02-25T12:47:49.365Z,14.46
2019-02-25T12:50:22.684Z,14.72
2019-02-25T12:52:56.019Z,14.65
2019-02-25T12:55:29.298Z,14.72
2019-02-25T12:58:02.585Z,14.78
2019-02-25T13:00:35.860Z,14.92
2019-02-25T13:03:09.192Z,14.99
2019-02-25T13:05:42.502Z,15.07
2019-02-25T13:08:15.814Z,15.27
2019-02-25T13:10:49.106Z,15.21
2019-02-25T13:13:22.408Z,15.11
2019-02-25T13:15:55.732Z,15.40
2019-02-25T13:18:29.024Z,15.39
2019-02-25T13:21:02.314Z,15.56
2019-02-25T13:23:35.639Z,15.47
2019-02-25T13:26:08.932Z,15.56
2019-02-25T13:28:42.187Z,15.73
2019-02-25T13:31:15.521Z,15.83
2019-02-25T13:33:48.843Z,15.89
2019-02-25T13:36:22.223Z,16.10
2019-02-25T13:38:55.573Z,16.26
2019-02-25T13:41:28.832Z,16.21
2019-02-25T13:44:02.164Z,16.10
2019-02-25T13:46:35.612Z,16.19
2019-02-25T13:49:08.940Z,16.37
2019-02-25T13:51:42.242Z,16.37
2019-02-25T13:54:15.548Z,16.47
2019-02-25T13:56:48.881Z,16.46
2019-02-25T13:59:22.223Z,16.51
2019-02-25T14:01:55.543Z,16.65
2019-02-25T14:04:28.845Z,16.94
2019-02-25T14:07:02.122Z,16.92
2019-02-25T14:09:35.524Z,16.86
2019-02-25T14:12:09.363Z,16.75
2019-02-25T14:14:42.637Z,16.75
2019-02-25T14:17:15.944Z,16.95
2019-02-25T14:19:49.221Z,16.99
2019-02-25T14:22:22.525Z,16.89
2019-02-25T14:24:56.735Z,17.01
2019-02-25T14:27:30.287Z,17.07
2019-02-25T14:30:04.314Z,17.39
2019-02-25T14:32:37.830Z,17.32
2019-02-25T14:35:11.190Z,17.24
2019-02-25T14:37:44.512Z,17.07
2019-02-25T14:40:21.325Z,17.22
2019-02-25T14:42:56.698Z,17.31
2019-02-25T14:45:33.509Z,17.23
2019-02-25T14:48:08.168Z,17.38
2019-02-25T14:50:41.819Z,17.22
2019-02-25T14:53:15.334Z,17.21
2019-02-25T14:55:50.358Z,17.32
2019-02-25T14:58:23.794Z,17.46
2019-02-25T15:00:57.116Z,17.53
2019-02-25T15:03:30.492Z,17.45
2019-02-25T15:06:03.782Z,17.50
2019-02-25T15:08:37.148Z,17.46
2019-02-25T15:11:11.383Z,17.53
2019-02-25T15:13:45.455Z,17.45
2019-02-25T15:16:18.829Z,17.63
2019-02-25T15:18:52.201Z,17.56
2019-02-25T15:21:25.487Z,17.50
2019-02-25T15:24:00.515Z,17.48
2019-02-25T15:26:42.655Z,17.33
2019-02-25T15:29:09.323Z,17.45
2019-02-25T15:31:44.426Z,17.39
2019-02-25T15:34:19.284Z,17.35
2019-02-25T15:36:52.674Z,17.44
2019-02-25T15:39:26.443Z,17.52
2019-02-25T15:41:59.693Z,17.28
2019-02-25T15:44:33.086Z,17.26
2019-02-25T15:47:08.253Z,17.24
2019-02-25T15:49:41.785Z,16.98
2019-02-25T15:52:18.362Z,16.97
2019-02-25T15:54:50.212Z,16.90
2019-02-25T15:57:24.562Z,16.95
2019-02-25T15:59:58.629Z,16.92
2019-02-25T16:02:31.965Z,16.85
2019-02-25T16:05:09.624Z,16.81
2019-02-25T16:07:43.370Z,16.74
2019-02-25T16:10:17.255Z,16.93
2019-02-25T16:12:51.239Z,16.96
2019-02-25T16:15:25.711Z,17.00
2019-02-25T16:17:58.989Z,16.86
2019-02-25T16:20:32.709Z,16.86
2019-02-25T16:23:08.261Z,16.83
2019-02-25T16:25:41.403Z,16.50
2019-02-25T16:28:15.693Z,16.44
2019-02-25T16:30:51.332Z,16.44
2019-02-25T16:33:25.984Z,16.36
2019-02-25T16:36:01.268Z,16.02
2019-02-25T16:38:36.399Z,16.02
2019-02-25T16:41:10.320Z,15.70
2019-02-25T16:43:43.797Z,15.67
2019-02-25T16:46:18.446Z,15.09
2019-02-25T16:48:53.363Z,15.09
2019-02-25T16:51:28.118Z,15.02
2019-02-25T16:54:06.731Z,15.02
2019-02-25T16:56:37.621Z,15.21
2019-02-25T16:59:11.794Z,15.13
2019-02-25T17:01:46.121Z,15.11
2019-02-25T17:04:22.546Z,14.83
2019-02-25T17:06:55.721Z,14.44
2019-02-25T17:09:31.938Z,14.10
2019-02-25T17:12:06.856Z,13.74
2019-02-25T17:14:41.027Z,13.53
2019-02-25T17:17:14.425Z,13.34
2019-02-25T17:19:47.748Z,13.37
2019-02-25T17:22:21.152Z,13.23
2019-02-25T17:24:56.509Z,13.00
2019-02-25T17:27:29.509Z,13.22
2019-02-25T17:30:02.767Z,13.31
2019-02-25T17:32:37.838Z,13.35
2019-02-25T17:35:13.338Z,13.10
2019-02-25T17:37:46.742Z,13.03
2019-02-25T17:40:20.235Z,12.92
2019-02-25T17:42:54.547Z,12.89
2019-02-25T17:45:34.028Z,12.86
2019-02-25T17:48:08.383Z,12.81
2019-02-25T17:50:41.968Z,12.65
2019-02-25T17:53:15.247Z,12.49
2019-02-25T17:55:50.721Z,12.42
2019-02-25T17:58:24.131Z,12.39
2019-02-25T18:00:59.252Z,12.30
2019-02-25T18:03:32.466Z,12.38
2019-02-25T18:06:07.501Z,12.31
2019-02-25T18:08:41.042Z,12.26
2019-02-25T18:11:15.768Z,12.20
2019-02-25T18:13:51.185Z,12.13
2019-02-25T18:16:24.499Z,12.07
2019-02-25T18:18:57.822Z,12.01
2019-02-25T18:21:31.186Z,11.96
2019-02-25T18:24:04.654Z,12.04
2019-02-25T18:26:37.938Z,11.98
2019-02-25T18:29:12.673Z,11.87
2019-02-25T18:31:46.352Z,11.81
2019-02-25T18:34:19.771Z,11.83
2019-02-25T18:36:53.750Z,11.79
2019-02-25T18:39:29.998Z,11.73
2019-02-25T18:42:03.202Z,11.68
2019-02-25T18:44:36.563Z,11.68
2019-02-25T18:47:09.871Z,11.64
2019-02-25T18:49:43.180Z,11.54
2019-02-25T18:52:16.489Z,11.26
2019-02-25T18:54:49.893Z,11.07
2019-02-25T18:57:25.187Z,10.83
2019-02-25T18:59:59.365Z,10.73
2019-02-25T19:02:35.563Z,10.61
2019-02-25T19:05:13.023Z,11.08
2019-02-25T19:07:44.227Z,11.66
2019-02-25T19:10:20.092Z,11.14
2019-02-25T19:12:53.873Z,10.71
2019-02-25T19:15:28.747Z,10.33
2019-02-25T19:18:02.096Z,10.19
2019-02-25T19:20:36.714Z,9.96
2019-02-25T19:23:11.732Z,9.65
2019-02-25T19:25:45.759Z,9.49
2019-02-25T19:28:21.585Z,9.34
2019-02-25T19:30:54.452Z,9.09
2019-02-25T19:33:27.894Z,8.70
2019-02-25T19:36:02.974Z,8.95
2019-02-25T19:38:41.077Z,8.84
2019-02-25T19:41:15.123Z,8.60
2019-02-25T19:43:46.497Z,8.75
2019-02-25T19:46:19.861Z,8.67
2019-02-25T19:48:54.263Z,8.54
2019-02-25T19:51:29.769Z,8.35
2019-02-25T19:54:05.195Z,8.25
2019-02-25T19:59:10.866Z,8.01
2019-02-25T20:01:44.180Z,8.08
2019-02-25T20:04:18.831Z,8.08
2019-02-25T20:06:53.752Z,8.01
2019-02-25T20:09:27.369Z,7.62
2019-02-25T20:12:01.843Z,7.59
2019-02-25T20:14:35.496Z,7.71
2019-02-25T20:17:08.877Z,7.80
2019-02-25T20:19:43.922Z,7.65
2019-02-25T20:22:18.438Z,7.56
2019-02-25T20:24:53.309Z,7.67
2019-02-25T20:27:26.971Z,7.62
2019-02-25T20:30:02.641Z,7.47
2019-02-25T20:32:36.467Z,7.32
2019-02-25T20:35:13.959Z,7.51
2019-02-25T20:37:51.145Z,7.50
2019-02-25T20:40:24.133Z,7.45
2019-02-25T20:42:58.727Z,7.93
2019-02-25T20:45:35.479Z,8.03
2019-02-25T20:48:09.103Z,7.97
2019-02-25T20:50:42.428Z,7.80
2019-02-25T20:53:15.790Z,7.60
2019-02-25T20:55:50.793Z,7.58
2019-02-25T20:58:24.190Z,7.59
2019-02-25T21:00:57.495Z,7.44
2019-02-25T21:03:30.780Z,7.31
2019-02-25T21:06:04.522Z,7.17
2019-02-25T21:08:39.862Z,7.02
2019-02-25T21:11:13.957Z,6.91
2019-02-25T21:13:47.883Z,6.84
2019-02-25T21:16:21.272Z,6.60
2019-02-25T21:18:55.032Z,6.31
2019-02-25T21:21:30.299Z,6.15
2019-02-25T21:24:04.245Z,5.85
2019-02-25T21:26:40.434Z,5.73
2019-02-25T21:29:13.681Z,5.71
2019-02-25T21:31:47.489Z,5.53
2019-02-25T21:34:24.423Z,5.35
2019-02-25T21:37:00.811Z,5.27
2019-02-25T21:39:36.663Z,5.20
2019-02-25T21:42:12.619Z,5.35
2019-02-25T21:44:46.441Z,5.49
2019-02-25T21:47:22.133Z,5.43
2019-02-25T21:49:58.750Z,5.35
2019-02-25T21:52:32.897Z,5.23
2019-02-25T21:55:07.574Z,5.11
2019-02-25T21:57:41.281Z,4.95
2019-02-25T22:00:27.128Z,4.82
2019-02-25T22:03:00.594Z,4.85
2019-02-25T22:05:33.889Z,4.93
2019-02-25T22:08:07.257Z,4.93
2019-02-25T22:10:42.023Z,4.87
2019-02-25T22:13:16.389Z,4.82
2019-02-25T22:15:50.584Z,5.04
2019-02-25T22:18:25.628Z,5.07
2019-02-25T22:20:58.901Z,5.13
2019-02-25T22:23:32.838Z,5.08
2019-02-25T22:26:07.366Z,5.21
2019-02-25T22:28:40.689Z,4.98
2019-02-25T22:31:15.818Z,4.96
2019-02-25T22:33:49.032Z,5.07
2019-02-25T22:36:22.317Z,5.09
2019-02-25T22:38:57.195Z,5.03
2019-02-25T22:41:30.638Z,4.75
2019-02-25T22:44:04.534Z,4.57
2019-02-25T22:46:39.703Z,4.58
2019-02-25T22:49:13.985Z,4.44
2019-02-25T22:51:51.682Z,4.35
2019-02-25T22:54:22.318Z,4.29
2019-02-25T22:56:55.652Z,4.21
2019-02-25T22:59:28.998Z,4.27
2019-02-25T23:02:02.540Z,4.17
2019-02-25T23:04:35.860Z,4.14
2019-02-25T23:07:11.075Z,4.20
2019-02-25T23:09:45.271Z,4.07
2019-02-25T23:12:20.154Z,3.99
2019-02-25T23:14:56.049Z,3.99
2019-02-25T23:17:33.083Z,3.95
2019-02-25T23:20:10.574Z,3.80
2019-02-25T23:22:43.855Z,3.71
2019-02-25T23:25:17.142Z,3.62
2019-02-25T23:27:51.667Z,3.55
2019-02-25T23:30:25.450Z,3.55
2019-02-25T23:32:58.743Z,3.48
2019-02-25T23:35:32.056Z,3.52
2019-02-25T23:38:05.329Z,3.41
2019-02-25T23:40:40.159Z,3.35
2019-02-25T23:43:14.946Z,3.27
2019-02-25T23:45:48.659Z,3.30
2019-02-25T23:48:21.959Z,3.28
2019-02-25T23:50:57.183Z,3.29
2019-02-25T23:53:31.119Z,3.27
2019-02-25T23:56:05.417Z,3.07
2019-02-25T23:58:42.322Z,3.07
